KCRW Airport Diagram

We have created a template for each of the higher traffic airports in the vZID airspace. They include KCMH, KCRW, KCVG, KDAY, KIND, KLEX and KSDF. You wil find usefull information including the airport diagram, weather, and specific airport procedures.

KCRW Weather

[Source: ADDS]
METAR
KCRW 300654Z 00000KT 8SM CLR 16/14 A3000 RMK AO2 SLP151 T01610144 $ =
TAF
KCRW 300545Z 3006/3106 VRB03KT P6SM BKN250 FM301400 23004KT P6SM BKN080 FM301800 25006KT P6SM SCT060 FM310500 00000KT P6SM SCT080 =
JSN Epic template designed by JoomlaShine.com